Time,TemperatureF,DewpointF,PressureIn,WindDirection,WindDirectionDegrees,WindSpeedMPH,WindSpeedGustMPH,Humidity,HourlyPrecipIn,Conditions,Clouds,dailyrainin,SoftwareType,DateUTC
2013-04-19 00:03:00,35.0,35.0,-100.00,West,275,14.0,32.0,99,0.00,,,-99.99,,2013-04-19 05:03:00,
2013-04-19 00:11:00,35.0,35.0,-100.00,West,275,19.0,26.0,99,0.00,,,-99.99,,2013-04-19 05:11:00,
2013-04-19 00:22:00,35.0,35.0,-100.00,West,275,19.0,26.0,99,0.00,,,-99.99,,2013-04-19 05:22:00,
2013-04-19 00:32:00,34.0,34.0,-100.00,West,275,20.0,24.0,99,0.00,,,-99.99,,2013-04-19 05:32:00,
2013-04-19 00:42:00,34.0,34.0,-100.00,West,265,16.0,25.0,99,0.13,,,-99.99,,2013-04-19 05:42:00,
2013-04-19 00:52:00,34.0,34.0,-100.00,West,280,17.0,24.0,99,0.16,,,-99.99,,2013-04-19 05:52:00,
2013-04-19 01:01:00,34.0,34.0,-100.00,West,270,19.0,29.0,99,0.00,,,-99.99,,2013-04-19 06:01:00,
2013-04-19 01:11:00,34.0,34.0,-100.00,West,280,18.0,26.0,99,0.14,,,-99.99,,2013-04-19 06:11:00,
2013-04-19 01:22:00,34.0,34.0,-100.00,West,275,18.0,28.0,99,0.16,,,-99.99,,2013-04-19 06:22:00,
2013-04-19 01:32:00,34.0,34.0,-100.00,West,280,18.0,24.0,99,0.00,,,-99.99,,2013-04-19 06:32:00,
2013-04-19 01:42:00,34.0,34.0,-100.00,West,280,21.0,30.0,99,0.00,,,-99.99,,2013-04-19 06:42:00,
2013-04-19 01:52:00,33.0,33.0,-100.00,West,280,15.0,20.0,99,0.20,,,-99.99,,2013-04-19 06:52:00,
2013-04-19 02:02:00,34.0,34.0,-100.00,West,265,16.0,24.0,99,0.00,,,-99.99,,2013-04-19 07:02:00,
2013-04-19 02:12:00,34.0,34.0,-100.00,West,275,21.0,26.0,99,0.00,,,-99.99,,2013-04-19 07:12:00,
2013-04-19 02:21:00,34.0,34.0,-100.00,West,275,21.0,26.0,99,0.00,,,-99.99,,2013-04-19 07:21:00,
2013-04-19 02:32:00,34.0,34.0,-100.00,West,275,21.0,26.0,99,0.00,,,-99.99,,2013-04-19 07:32:00,
2013-04-19 02:42:00,34.0,34.0,-100.00,West,275,21.0,26.0,99,0.00,,,-99.99,,2013-04-19 07:42:00,
2013-04-19 02:52:00,34.0,-99.9,-100.00,West,270,21.0,-999.0,-999,0.00,,,-99.99,,2013-04-19 07:52:00,
2013-04-19 03:02:00,34.0,-99.9,-100.00,West,270,21.0,-999.0,-999,0.00,,,-99.99,,2013-04-19 08:02:00,
2013-04-19 03:12:00,33.0,33.0,-100.00,West,275,16.0,27.0,99,0.00,,,-99.99,,2013-04-19 08:12:00,
2013-04-19 03:21:00,33.0,33.0,-100.00,West,275,16.0,27.0,99,0.00,,,-99.99,,2013-04-19 08:21:00,
2013-04-19 03:32:00,33.0,33.0,-100.00,West,280,18.0,30.0,99,0.00,,,-99.99,,2013-04-19 08:32:00,
2013-04-19 03:42:00,33.0,33.0,-100.00,WNW,285,18.0,29.0,99,0.00,,,-99.99,,2013-04-19 08:42:00,
2013-04-19 03:52:00,33.0,33.0,-100.00,West,280,19.0,25.0,99,0.00,,,-99.99,,2013-04-19 08:52:00,
2013-04-19 04:01:00,33.0,33.0,-100.00,West,280,15.0,26.0,99,0.00,,,-99.99,,2013-04-19 09:01:00,
2013-04-19 04:11:00,33.0,33.0,-100.00,West,280,19.0,24.0,99,0.00,,,-99.99,,2013-04-19 09:11:00,
2013-04-19 04:21:00,33.0,33.0,-100.00,West,280,19.0,24.0,99,0.00,,,-99.99,,2013-04-19 09:21:00,
2013-04-19 04:33:00,33.0,-99.9,-100.00,West,280,22.0,35.0,-999,0.18,,,-99.99,,2013-04-19 09:33:00,
2013-04-19 04:42:00,33.0,33.0,-100.00,West,280,19.0,30.0,99,0.00,,,-99.99,,2013-04-19 09:42:00,
2013-04-19 04:52:00,33.0,33.0,-100.00,West,275,19.0,25.0,99,0.00,,,-99.99,,2013-04-19 09:52:00,
2013-04-19 05:02:00,33.0,33.0,-100.00,West,270,22.0,34.0,99,0.00,,,-99.99,,2013-04-19 10:02:00,
2013-04-19 05:13:00,33.0,33.0,-100.00,West,280,22.0,31.0,99,0.00,,,-99.99,,2013-04-19 10:13:00,
2013-04-19 05:23:00,33.0,33.0,-100.00,West,280,22.0,31.0,99,0.00,,,-99.99,,2013-04-19 10:23:00,
2013-04-19 05:33:00,33.0,-99.9,-100.00,West,280,19.0,29.0,-999,0.00,,,-99.99,,2013-04-19 10:33:00,
2013-04-19 05:42:00,33.0,33.0,-100.00,West,280,21.0,29.0,99,0.00,,,-99.99,,2013-04-19 10:42:00,
2013-04-19 05:52:00,33.0,33.0,-100.00,West,275,19.0,27.0,99,0.00,,,-99.99,,2013-04-19 10:52:00,
2013-04-19 06:02:00,33.0,33.0,-100.00,West,275,19.0,27.0,99,0.00,,,-99.99,,2013-04-19 11:02:00,
2013-04-19 06:11:00,33.0,33.0,-100.00,West,275,19.0,29.0,99,0.00,,,-99.99,,2013-04-19 11:11:00,
2013-04-19 06:22:00,33.0,33.0,-100.00,West,280,21.0,30.0,99,0.00,,,-99.99,,2013-04-19 11:22:00,
2013-04-19 06:32:00,33.0,33.0,-100.00,West,280,19.0,31.0,99,0.00,,,-99.99,,2013-04-19 11:32:00,
2013-04-19 06:42:00,33.0,33.0,-100.00,West,280,22.0,27.0,99,0.00,,,-99.99,,2013-04-19 11:42:00,
2013-04-19 06:52:00,32.0,32.0,-100.00,West,280,17.0,27.0,99,0.00,,,-99.99,,2013-04-19 11:52:00,
2013-04-19 07:02:00,32.0,32.0,-100.00,West,275,21.0,29.0,99,0.00,,,-99.99,,2013-04-19 12:02:00,
2013-04-19 07:12:00,32.0,32.0,-100.00,West,280,14.0,27.0,99,0.00,,,-99.99,,2013-04-19 12:12:00,
2013-04-19 07:22:00,32.0,32.0,-100.00,West,270,21.0,29.0,99,0.00,,,-99.99,,2013-04-19 12:22:00,
2013-04-19 07:32:00,32.0,32.0,-100.00,West,280,21.0,27.0,99,0.00,,,-99.99,,2013-04-19 12:32:00,
2013-04-19 07:42:00,32.0,32.0,-100.00,West,275,24.0,32.0,99,0.00,,,-99.99,,2013-04-19 12:42:00,
2013-04-19 07:52:00,32.0,32.0,-100.00,West,280,19.0,27.0,99,0.00,,,-99.99,,2013-04-19 12:52:00,
2013-04-19 08:01:00,32.0,32.0,-100.00,West,280,21.0,28.0,99,0.00,,,-99.99,,2013-04-19 13:01:00,
2013-04-19 08:11:00,31.0,31.0,-100.00,West,280,20.0,29.0,99,0.00,,,-99.99,,2013-04-19 13:11:00,
2013-04-19 08:21:00,31.0,31.0,-100.00,West,275,24.0,29.0,99,0.00,,,-99.99,,2013-04-19 13:21:00,
2013-04-19 08:32:00,32.0,32.0,-100.00,West,270,21.0,30.0,99,0.00,,,-99.99,,2013-04-19 13:32:00,
2013-04-19 08:42:00,32.0,32.0,-100.00,West,280,17.0,27.0,99,0.00,,,-99.99,,2013-04-19 13:42:00,
2013-04-19 08:52:00,32.0,32.0,-100.00,West,280,19.0,26.0,99,0.00,,,-99.99,,2013-04-19 13:52:00,
2013-04-19 09:01:00,32.0,32.0,-100.00,West,280,20.0,27.0,99,0.00,,,-99.99,,2013-04-19 14:01:00,
2013-04-19 09:11:00,32.0,32.0,-100.00,West,280,22.0,30.0,99,0.00,,,-99.99,,2013-04-19 14:11:00,
2013-04-19 09:22:00,32.0,32.0,-100.00,West,280,24.0,34.0,99,0.00,,,-99.99,,2013-04-19 14:22:00,
2013-04-19 09:32:00,32.0,32.0,-100.00,West,280,22.0,32.0,99,0.00,,,-99.99,,2013-04-19 14:32:00,
2013-04-19 09:42:00,32.0,32.0,-100.00,West,280,20.0,26.0,99,0.11,,,-99.99,,2013-04-19 14:42:00,
2013-04-19 09:52:00,32.0,32.0,-100.00,West,280,23.0,32.0,99,0.00,,,-99.99,,2013-04-19 14:52:00,
2013-04-19 10:01:00,32.0,32.0,-100.00,West,280,26.0,32.0,99,0.00,,,-99.99,,2013-04-19 15:01:00,
2013-04-19 10:12:00,33.0,33.0,-100.00,West,275,21.0,34.0,99,0.00,,,-99.99,,2013-04-19 15:12:00,
2013-04-19 10:21:00,33.0,32.0,-100.00,West,280,26.0,34.0,96,0.00,,,-99.99,,2013-04-19 15:21:00,
2013-04-19 10:33:00,33.0,33.0,-100.00,West,280,16.0,34.0,99,0.00,,,-99.99,,2013-04-19 15:33:00,
2013-04-19 10:43:00,33.0,32.0,-100.00,West,275,24.0,32.0,96,0.00,,,-99.99,,2013-04-19 15:43:00,
2013-04-19 10:52:00,33.0,33.0,-100.00,West,280,22.0,32.0,98,0.00,,,-99.99,,2013-04-19 15:52:00,
2013-04-19 11:03:00,33.0,33.0,-100.00,WNW,285,25.0,32.0,96,0.00,,,-99.99,,2013-04-19 16:03:00,
2013-04-19 11:13:00,33.0,33.0,-100.00,WNW,295,18.0,35.0,99,0.00,,,-99.99,,2013-04-19 16:13:00,
2013-04-19 11:23:00,33.0,33.0,-100.00,WNW,290,23.0,30.0,97,0.13,,,-99.99,,2013-04-19 16:23:00,
2013-04-19 11:32:00,33.0,33.0,-100.00,WNW,290,21.0,28.0,96,0.13,,,-99.99,,2013-04-19 16:32:00,
2013-04-19 11:42:00,33.0,32.0,-100.00,WNW,285,25.0,30.0,95,0.13,,,-99.99,,2013-04-19 16:42:00,
2013-04-19 11:52:00,34.0,33.0,-100.00,West,280,21.0,30.0,95,0.00,,,-99.99,,2013-04-19 16:52:00,
2013-04-19 12:02:00,34.0,32.0,-100.00,West,280,21.0,27.0,92,0.00,,,-99.99,,2013-04-19 17:02:00,
2013-04-19 12:12:00,34.0,33.0,-100.00,West,280,20.0,29.0,94,0.10,,,-99.99,,2013-04-19 17:12:00,
2013-04-19 12:21:00,34.0,33.0,-100.00,West,280,21.0,32.0,95,0.08,,,-99.99,,2013-04-19 17:21:00,
2013-04-19 12:33:00,35.0,33.0,-100.00,West,280,22.0,35.0,93,0.00,,,-99.99,,2013-04-19 17:33:00,
2013-04-19 12:42:00,35.0,32.0,-100.00,West,265,22.0,30.0,89,0.00,,,-99.99,,2013-04-19 17:42:00,
2013-04-19 12:52:00,35.0,33.0,-100.00,WNW,295,20.0,34.0,93,0.00,,,-99.99,,2013-04-19 17:52:00,
2013-04-19 13:02:00,35.0,32.0,-100.00,WNW,285,23.0,32.0,88,0.00,,,-99.99,,2013-04-19 18:02:00,
2013-04-19 13:13:00,35.0,32.0,-100.00,West,280,26.0,34.0,86,0.00,,,-99.99,,2013-04-19 18:13:00,
2013-04-19 13:22:00,36.0,32.0,-100.00,NW,305,25.0,34.0,87,0.00,,,-99.99,,2013-04-19 18:22:00,
2013-04-19 13:33:00,36.0,31.0,-100.00,WNW,285,26.0,34.0,84,0.00,,,-99.99,,2013-04-19 18:33:00,
2013-04-19 13:43:00,36.0,32.0,-100.00,West,280,26.0,34.0,83,0.00,,,-99.99,,2013-04-19 18:43:00,
2013-04-19 13:52:00,36.0,32.0,-100.00,WNW,285,23.0,32.0,84,0.00,,,-99.99,,2013-04-19 18:52:00,
2013-04-19 14:01:00,36.0,31.0,-100.00,WNW,285,29.0,35.0,80,0.14,,,-99.99,,2013-04-19 19:01:00,
2013-04-19 14:11:00,36.0,31.0,-100.00,WNW,300,27.0,34.0,80,0.00,,,-99.99,,2013-04-19 19:11:00,
2013-04-19 14:21:00,36.0,31.0,-100.00,WNW,285,22.0,34.0,81,0.00,,,-99.99,,2013-04-19 19:21:00,
2013-04-19 14:32:00,37.0,32.0,-100.00,WNW,295,26.0,31.0,80,0.00,,,-99.99,,2013-04-19 19:32:00,
2013-04-19 14:42:00,37.0,31.0,-100.00,WNW,285,26.0,37.0,78,0.00,,,-99.99,,2013-04-19 19:42:00,
2013-04-19 14:52:00,37.0,30.0,-100.00,WNW,290,26.0,36.0,74,0.00,,,-99.99,,2013-04-19 19:52:00,
2013-04-19 15:02:00,37.0,31.0,-100.00,WNW,285,27.0,37.0,76,0.00,,,-99.99,,2013-04-19 20:02:00,
2013-04-19 15:11:00,37.0,32.0,-100.00,West,280,26.0,34.0,82,0.00,,,-99.99,,2013-04-19 20:11:00,
2013-04-19 15:22:00,37.0,32.0,-100.00,WNW,285,25.0,33.0,80,0.14,,,-99.99,,2013-04-19 20:22:00,
2013-04-19 15:32:00,38.0,33.0,-100.00,West,280,24.0,36.0,82,0.00,,,-99.99,,2013-04-19 20:32:00,
2013-04-19 15:42:00,37.0,31.0,-100.00,West,280,26.0,35.0,79,0.18,,,-99.99,,2013-04-19 20:42:00,
2013-04-19 15:51:00,37.0,31.0,-100.00,WNW,285,29.0,35.0,77,0.00,,,-99.99,,2013-04-19 20:51:00,
2013-04-19 16:01:00,37.0,32.0,-100.00,WNW,295,24.0,37.0,81,0.00,,,-99.99,,2013-04-19 21:01:00,
2013-04-19 16:11:00,37.0,31.0,-100.00,WNW,285,27.0,37.0,79,0.00,,,-99.99,,2013-04-19 21:11:00,
2013-04-19 16:21:00,37.0,31.0,-100.00,WNW,285,23.0,27.0,81,0.17,,,-99.99,,2013-04-19 21:21:00,
2013-04-19 16:32:00,36.0,31.0,-100.00,WNW,285,24.0,34.0,81,0.14,,,-99.99,,2013-04-19 21:32:00,
2013-04-19 16:42:00,36.0,32.0,-100.00,WNW,285,21.0,30.0,85,0.00,,,-99.99,,2013-04-19 21:42:00,
2013-04-19 16:52:00,36.0,31.0,-100.00,WNW,285,26.0,33.0,81,0.00,,,-99.99,,2013-04-19 21:52:00,
2013-04-19 17:02:00,37.0,30.0,-100.00,WNW,295,26.0,33.0,76,0.00,,,-99.99,,2013-04-19 22:02:00,
2013-04-19 17:12:00,36.0,30.0,-100.00,WNW,295,21.0,33.0,77,0.00,,,-99.99,,2013-04-19 22:12:00,
2013-04-19 17:22:00,37.0,30.0,-100.00,WNW,295,22.0,34.0,75,0.00,,,-99.99,,2013-04-19 22:22:00,
2013-04-19 17:33:00,37.0,31.0,-100.00,WNW,295,19.0,29.0,78,0.00,,,-99.99,,2013-04-19 22:33:00,
2013-04-19 17:42:00,37.0,30.0,-100.00,West,280,21.0,27.0,77,0.00,,,-99.99,,2013-04-19 22:42:00,
2013-04-19 17:52:00,36.0,30.0,-100.00,NW,305,24.0,31.0,77,0.08,,,-99.99,,2013-04-19 22:52:00,
2013-04-19 18:02:00,37.0,31.0,-100.00,NW,305,18.0,26.0,78,0.00,,,-99.99,,2013-04-19 23:02:00,
2013-04-19 18:11:00,36.0,30.0,-100.00,NW,305,20.0,28.0,76,0.00,,,-99.99,,2013-04-19 23:11:00,
2013-04-19 18:22:00,36.0,30.0,-100.00,WNW,295,21.0,29.0,77,0.00,,,-99.99,,2013-04-19 23:22:00,
2013-04-19 18:32:00,36.0,30.0,-100.00,WNW,295,21.0,29.0,77,0.00,,,-99.99,,2013-04-19 23:32:00,
2013-04-19 18:42:00,36.0,30.0,-100.00,NW,305,18.0,27.0,77,0.00,,,-99.99,,2013-04-19 23:42:00,
2013-04-19 18:52:00,36.0,30.0,-100.00,WNW,300,16.0,27.0,77,0.00,,,-99.99,,2013-04-19 23:52:00,
2013-04-19 19:02:00,36.0,29.0,-100.00,NW,305,23.0,29.0,76,0.00,,,-99.99,,2013-04-20 00:02:00,
2013-04-19 19:12:00,36.0,30.0,-100.00,WNW,295,20.0,26.0,77,0.00,,,-99.99,,2013-04-20 00:12:00,
2013-04-19 19:21:00,36.0,30.0,-100.00,NW,305,15.0,23.0,80,0.00,,,-99.99,,2013-04-20 00:21:00,
2013-04-19 19:32:00,36.0,31.0,-100.00,NW,315,15.0,20.0,81,0.00,,,-99.99,,2013-04-20 00:32:00,
2013-04-19 19:41:00,36.0,30.0,-100.00,WNW,295,13.0,20.0,81,0.00,,,-99.99,,2013-04-20 00:41:00,
2013-04-19 19:51:00,35.0,29.0,-100.00,WNW,295,20.0,24.0,77,0.00,,,-99.99,,2013-04-20 00:51:00,
2013-04-19 20:01:00,35.0,29.0,-100.00,NW,305,17.0,26.0,79,0.00,,,-99.99,,2013-04-20 01:01:00,
2013-04-19 20:11:00,35.0,30.0,-100.00,WNW,300,16.0,23.0,81,0.00,,,-99.99,,2013-04-20 01:11:00,
2013-04-19 20:21:00,35.0,30.0,-100.00,NW,305,17.0,21.0,81,0.00,,,-99.99,,2013-04-20 01:21:00,
2013-04-19 20:32:00,35.0,29.0,-100.00,WNW,295,16.0,28.0,80,0.00,,,-99.99,,2013-04-20 01:32:00,
2013-04-19 20:42:00,35.0,28.0,-100.00,WNW,295,19.0,27.0,76,0.00,,,-99.99,,2013-04-20 01:42:00,
2013-04-19 20:52:00,35.0,27.0,-100.00,WNW,295,18.0,24.0,75,0.00,,,-99.99,,2013-04-20 01:52:00,
2013-04-19 21:01:00,35.0,27.0,-100.00,WNW,295,18.0,24.0,75,0.00,,,-99.99,,2013-04-20 02:01:00,
2013-04-19 21:11:00,34.0,27.0,-100.00,WNW,295,19.0,26.0,76,0.00,,,-99.99,,2013-04-20 02:11:00,
2013-04-19 21:21:00,34.0,27.0,-100.00,WNW,295,19.0,26.0,76,0.00,,,-99.99,,2013-04-20 02:21:00,
2013-04-19 21:32:00,34.0,27.0,-100.00,NW,305,21.0,31.0,74,0.00,,,-99.99,,2013-04-20 02:32:00,
2013-04-19 21:42:00,34.0,27.0,-100.00,NW,305,21.0,31.0,74,0.00,,,-99.99,,2013-04-20 02:42:00,
2013-04-19 21:52:00,34.0,28.0,-100.00,NW,305,16.0,22.0,77,0.00,,,-99.99,,2013-04-20 02:52:00,
2013-04-19 22:01:00,34.0,28.0,-100.00,NW,305,16.0,22.0,77,0.00,,,-99.99,,2013-04-20 03:01:00,
2013-04-19 22:11:00,33.0,27.0,-100.00,WNW,300,16.0,22.0,78,0.00,,,-99.99,,2013-04-20 03:11:00,
2013-04-19 22:21:00,33.0,27.0,-100.00,WNW,300,16.0,24.0,76,0.00,,,-99.99,,2013-04-20 03:21:00,
2013-04-19 22:33:00,33.0,27.0,-100.00,WNW,295,17.0,22.0,76,0.00,,,-99.99,,2013-04-20 03:33:00,
2013-04-19 22:43:00,33.0,27.0,-100.00,WNW,295,17.0,22.0,76,0.00,,,-99.99,,2013-04-20 03:43:00,
2013-04-19 22:52:00,32.0,28.0,-100.00,WNW,285,12.0,16.0,84,0.00,,,-99.99,,2013-04-20 03:52:00,
2013-04-19 23:03:00,32.0,28.0,-100.00,WNW,290,12.0,18.0,85,0.00,,,-99.99,,2013-04-20 04:03:00,
2013-04-19 23:12:00,32.0,28.0,-100.00,WNW,290,12.0,18.0,85,0.00,,,-99.99,,2013-04-20 04:12:00,
2013-04-19 23:23:00,32.0,28.0,-100.00,WNW,285,12.0,16.0,86,0.00,,,-99.99,,2013-04-20 04:23:00,
2013-04-19 23:32:00,31.0,28.0,-100.00,WNW,285,11.0,14.0,87,0.00,,,-99.99,,2013-04-20 04:32:00,
2013-04-19 23:42:00,31.0,28.0,-100.00,WNW,285,11.0,14.0,87,0.00,,,-99.99,,2013-04-20 04:42:00,
2013-04-19 23:53:00,31.0,28.0,-100.00,WNW,285,11.0,16.0,88,0.00,,,-99.99,,2013-04-20 04:53:00,